Airfield :
LOGIN :

Register | Disclaimer

   EN    FR    IT 

 










Legend :    VFR   Marginal VFR   IFR   Intensive IFR   Very Intensive IFR
Visi :
Ceiling :
>= 8 km
>= 3000ft
5 to 8 km
1000 to 3000 ft
1500m to 5 km
500 to 1000 ft
800 to 1500m
200 to 500 ft
< 800m
< 200 ft
Symbols :   Thunderstorms  Fog  Heavy snow  Heavy precipitations  Wind > 20 kt
SIGMETs :     Misc.  Thunderstorms  Icing  Turbulence  Mountain Waves  Volcanic Ashes






- Airport Elevation : 72 ft
- IATA code : UDE


EHVK - Volkel Airbase

CURRENT METAR :
  • 180525Z AUTO 35004KT 330V030 9999 OVC120 20/19 Q1013 BLU

EXPIRED METARs :
  • 180455Z AUTO 33004KT 270V040 9999 OVC120 19/18 Q1013 RETSGRRA BLU
  • 180436Z AUTO 02005KT 280V030 9999 TS FEW011 FEW015CB SCT081 OVC124 19/18 Q1013 BLU
  • 180425Z AUTO 28008KT 210V350 1000 TSGRRA FEW010 SCT012 SCT015CB BKN036 20/18 Q1014 AMB
  • 180418Z AUTO 23014G24KT 200V260 2100 +TSRA FEW015CB SCT025 BKN040 22/18 Q1015 YLO
  • 180358Z AUTO VRB08KT 9999 TS FEW017CB SCT029 OVC096 22/17 Q1013 BLU
  • 180355Z AUTO VRB09G19KT 9999 -TSRA FEW015CB BKN020 BKN047 21/18 Q1014 WHT
  • 180345Z AUTO VRB11G23KT 9999 TS SCT015CB SCT050 BKN065 21/18 Q1013 WHT
  • 180325Z AUTO 28005KT 260V350 9999 BKN064 OVC072 20/18 Q1013 BLU

TAF TAF EHVK
Valid from the 18 at 05:00 until the 18 at 17:00 UTC


180406Z 1805/1817 03006KT CAVOK
BECMG 1809/1812 13007KT
PROB40
TEMPO 1814/1817 VRB15G35KT 3500 SHRA TSRA SCT050CB BKN070
PROB30
TEMPO 1814/1817 1500 +TSRAGR SCT020 BKN040CB



MET'MAP, your aeronautical weather chart ! - Copyright ORBIFLY December 2007 - Disclaimer

ORBIFLY MET'MAP TEAM :

Programming & Development : Alexandra Zaïnal
Concept & original design : Baudouin d'Aumeries
Assistance for programming : Marc-Olivier Méhu
Technical & hardware support : Manuel Goepfert

Contact : metmap@orbifly.com




SOURCES & CREDITS :

   NOAA